createdAt,value
2022-07-29T00:03:01.345Z,87.54
2022-07-29T00:06:05.403Z,87.62
2022-07-29T00:09:08.578Z,87.42
2022-07-29T00:12:11.292Z,87.27
2022-07-29T00:15:14.226Z,87.44
2022-07-29T00:18:16.864Z,87.29
2022-07-29T00:21:20.851Z,86.44
2022-07-29T00:24:23.451Z,86.91
2022-07-29T00:27:26.102Z,86.34
2022-07-29T00:30:28.694Z,86.93
2022-07-29T00:33:31.506Z,86.54
2022-07-29T00:36:34.486Z,87.75
2022-07-29T00:39:37.104Z,87.82
2022-07-29T00:42:44.567Z,87.88
2022-07-29T00:45:47.231Z,87.78
2022-07-29T00:48:49.854Z,88.14
2022-07-29T00:51:54.358Z,87.95
2022-07-29T00:54:58.210Z,88.14
2022-07-29T00:58:01.488Z,88.69
2022-07-29T01:01:04.202Z,87.70
2022-07-29T01:04:08.374Z,87.66
2022-07-29T01:07:13.051Z,88.28
2022-07-29T01:10:17.170Z,87.83
2022-07-29T01:13:20.822Z,88.23
2022-07-29T01:16:32.219Z,88.85
2022-07-29T01:19:49.697Z,88.99
2022-07-29T01:23:15.523Z,88.68
2022-07-29T01:26:33.833Z,88.74
2022-07-29T01:29:41.146Z,89.71
2022-07-29T01:32:46.931Z,88.30
2022-07-29T01:35:49.606Z,89.11
2022-07-29T01:38:59.899Z,88.72
2022-07-29T01:42:09.456Z,89.33
2022-07-29T01:45:18.016Z,86.63
2022-07-29T01:48:25.109Z,87.92
2022-07-29T01:51:33.662Z,88.06
2022-07-29T01:54:43.786Z,87.68
2022-07-29T01:57:51.306Z,88.63
2022-07-29T02:00:58.001Z,88.45
2022-07-29T02:04:04.192Z,88.24
2022-07-29T02:07:09.022Z,87.89
2022-07-29T02:10:13.909Z,88.43
2022-07-29T02:13:18.814Z,88.47
2022-07-29T02:16:24.613Z,88.56
2022-07-29T02:19:28.924Z,89.83
2022-07-29T02:22:33.478Z,89.13
2022-07-29T02:25:37.657Z,88.93
2022-07-29T02:28:42.051Z,88.48
2022-07-29T02:31:48.214Z,89.19
2022-07-29T02:34:52.260Z,89.34
2022-07-29T02:38:09.762Z,88.77
2022-07-29T02:41:15.404Z,88.24
2022-07-29T02:44:20.562Z,89.65
2022-07-29T02:47:29.786Z,88.76
2022-07-29T02:50:36.734Z,88.90
2022-07-29T02:53:40.709Z,89.45
2022-07-29T02:56:46.278Z,88.97
2022-07-29T02:59:51.914Z,88.35
2022-07-29T03:02:58.613Z,89.44
2022-07-29T03:06:02.994Z,89.64
2022-07-29T03:09:12.017Z,89.77
2022-07-29T03:12:16.654Z,89.13
2022-07-29T03:15:20.235Z,89.12
2022-07-29T03:18:24.454Z,89.73
2022-07-29T03:21:27.112Z,89.54
2022-07-29T03:24:32.298Z,89.78
2022-07-29T03:27:34.946Z,89.96
2022-07-29T03:30:37.626Z,90.10
2022-07-29T03:33:42.912Z,90.00
2022-07-29T03:36:45.714Z,88.94
2022-07-29T03:39:51.079Z,89.53
2022-07-29T03:42:56.054Z,89.88
2022-07-29T03:46:02.073Z,88.88
2022-07-29T03:49:09.053Z,89.40
2022-07-29T03:52:11.951Z,89.04
2022-07-29T03:55:15.427Z,89.31
2022-07-29T03:58:19.215Z,89.74
2022-07-29T04:01:23.139Z,89.66
2022-07-29T04:04:27.445Z,89.56
2022-07-29T04:07:31.370Z,89.42
2022-07-29T04:10:35.779Z,87.85
2022-07-29T04:13:38.531Z,88.09
2022-07-29T04:16:41.111Z,88.80
2022-07-29T04:19:45.074Z,89.00
2022-07-29T04:22:47.680Z,89.47
2022-07-29T04:25:50.277Z,88.71
2022-07-29T04:28:52.903Z,88.77
2022-07-29T04:31:55.510Z,88.40
2022-07-29T04:34:59.449Z,87.05
2022-07-29T04:38:03.050Z,86.87
2022-07-29T04:41:05.766Z,87.69
2022-07-29T04:44:09.034Z,86.57
2022-07-29T04:47:11.873Z,86.80
2022-07-29T04:50:15.814Z,87.56
2022-07-29T04:53:18.429Z,87.27
2022-07-29T04:56:21.193Z,86.18
2022-07-29T04:59:23.817Z,86.85
2022-07-29T05:02:26.443Z,87.17
2022-07-29T05:05:30.405Z,87.61
2022-07-29T05:08:32.962Z,86.47
2022-07-29T05:11:35.544Z,86.62
2022-07-29T05:14:38.140Z,87.00
2022-07-29T05:17:40.786Z,85.39
2022-07-29T05:20:44.770Z,87.77
2022-07-29T05:23:47.356Z,86.04
2022-07-29T05:26:49.974Z,85.64
2022-07-29T05:29:52.796Z,87.15
2022-07-29T05:32:55.394Z,87.01
2022-07-29T05:36:00.777Z,85.69
2022-07-29T05:39:03.883Z,86.01
2022-07-29T05:42:10.353Z,85.91
2022-07-29T05:45:13.014Z,86.86
2022-07-29T05:48:15.617Z,86.63
2022-07-29T05:51:19.587Z,86.35
2022-07-29T05:54:22.128Z,84.20
2022-07-29T05:57:25.989Z,82.00
2022-07-29T06:00:28.649Z,81.74
2022-07-29T06:03:32.187Z,80.57
2022-07-29T06:06:36.402Z,80.46
2022-07-29T06:09:39.131Z,80.63
2022-07-29T06:12:41.818Z,80.80
2022-07-29T06:15:44.858Z,80.58
2022-07-29T06:18:47.515Z,80.22
2022-07-29T06:21:51.506Z,80.88
2022-07-29T06:24:54.506Z,79.78
2022-07-29T06:27:57.045Z,79.91
2022-07-29T06:30:59.691Z,79.38
2022-07-29T06:34:02.402Z,79.70
2022-07-29T06:37:15.643Z,78.71
2022-07-29T06:40:47.256Z,80.16
2022-07-29T06:43:55.449Z,79.68
2022-07-29T06:46:59.556Z,78.45
2022-07-29T06:50:02.157Z,77.63
2022-07-29T06:53:06.799Z,79.27
2022-07-29T06:56:10.098Z,78.89
2022-07-29T06:59:13.678Z,79.47
2022-07-29T07:02:16.312Z,78.32
2022-07-29T07:05:19.046Z,79.53
2022-07-29T07:08:24.559Z,78.94
2022-07-29T07:11:27.192Z,77.54
2022-07-29T07:14:29.755Z,77.39
2022-07-29T07:17:32.378Z,76.79
2022-07-29T07:20:35.001Z,75.25
2022-07-29T07:23:39.325Z,76.10
2022-07-29T07:26:41.909Z,76.47
2022-07-29T07:29:44.545Z,76.40
2022-07-29T07:32:47.178Z,75.99
2022-07-29T07:35:49.788Z,76.40
2022-07-29T07:38:53.735Z,77.71
2022-07-29T07:41:56.342Z,78.73
2022-07-29T07:45:12.999Z,79.05
2022-07-29T07:48:16.384Z,76.96
2022-07-29T07:51:18.999Z,77.14
2022-07-29T07:54:22.940Z,74.84
2022-07-29T07:57:25.588Z,73.47
2022-07-29T08:00:28.226Z,72.08
2022-07-29T08:03:30.902Z,72.36
2022-07-29T08:06:35.750Z,71.26
2022-07-29T08:09:39.681Z,71.74
2022-07-29T08:12:42.361Z,71.33
2022-07-29T08:15:46.431Z,72.60
2022-07-29T08:18:49.792Z,72.21
2022-07-29T08:21:54.474Z,70.33
2022-07-29T08:24:58.766Z,68.82
2022-07-29T08:28:01.347Z,67.81
2022-07-29T08:31:04.121Z,66.95
2022-07-29T08:34:07.419Z,67.64
2022-07-29T08:37:10.015Z,66.20
2022-07-29T08:40:15.047Z,67.39
2022-07-29T08:43:17.664Z,65.57
2022-07-29T08:46:21.347Z,63.74
2022-07-29T08:49:24.001Z,64.67
2022-07-29T08:52:28.405Z,64.11
2022-07-29T08:55:32.542Z,63.12
2022-07-29T08:58:36.827Z,62.82
2022-07-29T09:01:44.347Z,60.03
2022-07-29T09:04:49.161Z,59.02
2022-07-29T09:07:52.332Z,59.25
2022-07-29T09:10:57.597Z,58.10
2022-07-29T09:14:00.404Z,58.36
2022-07-29T09:17:03.237Z,55.98
2022-07-29T09:20:11.564Z,58.01
2022-07-29T09:23:23.307Z,57.02
2022-07-29T09:26:31.812Z,55.72
2022-07-29T09:29:36.224Z,58.03
2022-07-29T09:32:58.192Z,55.55
2022-07-29T09:36:01.834Z,55.51
2022-07-29T09:39:05.248Z,54.15
2022-07-29T09:42:09.269Z,53.58
2022-07-29T09:45:13.117Z,54.20
2022-07-29T09:48:17.703Z,54.41
2022-07-29T09:51:25.452Z,52.86
2022-07-29T09:54:37.554Z,49.84
2022-07-29T09:57:41.831Z,53.02
2022-07-29T10:00:45.392Z,51.64
2022-07-29T10:03:54.746Z,51.59
2022-07-29T10:07:04.487Z,50.40
2022-07-29T10:10:08.556Z,50.38
2022-07-29T10:13:16.212Z,50.14
2022-07-29T10:16:19.246Z,50.89
2022-07-29T10:19:22.407Z,50.01
2022-07-29T10:22:50.786Z,51.54
2022-07-29T10:25:47.878Z,51.02
2022-07-29T10:28:51.802Z,49.68
2022-07-29T10:32:08.191Z,50.44
2022-07-29T10:35:35.384Z,51.04
2022-07-29T10:38:49.187Z,51.83
2022-07-29T10:42:07.445Z,51.98
2022-07-29T10:45:13.250Z,53.13
2022-07-29T10:48:17.591Z,54.10
2022-07-29T10:51:21.824Z,52.96
2022-07-29T10:54:48.531Z,48.56
2022-07-29T10:58:13.037Z,47.88
2022-07-29T11:01:37.678Z,46.54
2022-07-29T11:05:01.290Z,45.76
2022-07-29T11:08:27.808Z,41.64
2022-07-29T11:11:58.363Z,42.20
2022-07-29T11:15:03.638Z,40.57
2022-07-29T11:18:15.028Z,43.46
2022-07-29T11:21:53.798Z,41.34
2022-07-29T11:25:16.796Z,42.64
2022-07-29T11:28:25.326Z,40.92
2022-07-29T11:31:37.321Z,43.14
2022-07-29T11:34:41.627Z,42.02
2022-07-29T11:37:52.149Z,41.91
2022-07-29T11:41:27.277Z,43.83
2022-07-29T11:44:57.654Z,51.14
2022-07-29T11:48:27.957Z,54.77
2022-07-29T11:51:32.991Z,46.94
2022-07-29T11:54:52.124Z,44.08
2022-07-29T11:58:04.216Z,43.42
2022-07-29T12:01:07.250Z,42.71
2022-07-29T12:04:10.478Z,46.30
2022-07-29T12:07:15.685Z,42.91
2022-07-29T12:10:19.881Z,43.19
2022-07-29T12:13:37.169Z,39.06
2022-07-29T12:16:40.597Z,39.07
2022-07-29T12:19:46.040Z,40.79
2022-07-29T12:22:50.285Z,40.78
2022-07-29T12:25:53.067Z,42.79
2022-07-29T12:28:57.004Z,42.46
2022-07-29T12:32:00.270Z,39.41
2022-07-29T12:35:06.410Z,43.30
2022-07-29T12:38:12.115Z,41.49
2022-07-29T12:41:14.761Z,39.71
2022-07-29T12:44:17.393Z,42.01
2022-07-29T12:47:21.462Z,39.40
2022-07-29T12:50:26.547Z,40.62
2022-07-29T12:53:30.877Z,39.40
2022-07-29T12:56:42.755Z,38.93
2022-07-29T12:59:46.117Z,40.76
2022-07-29T13:02:57.269Z,35.71
2022-07-29T13:05:59.843Z,32.61
2022-07-29T13:09:07.957Z,34.39
2022-07-29T13:12:11.933Z,34.59
2022-07-29T13:15:15.954Z,33.59
2022-07-29T13:18:32.953Z,33.87
2022-07-29T13:21:35.848Z,34.63
2022-07-29T13:24:50.279Z,33.10
2022-07-29T13:27:55.180Z,33.79
2022-07-29T13:30:57.800Z,32.81
2022-07-29T13:34:00.440Z,33.08
2022-07-29T13:37:03.073Z,31.89
2022-07-29T13:40:08.814Z,32.35
2022-07-29T13:43:11.506Z,33.14
2022-07-29T13:46:14.160Z,32.31
2022-07-29T13:49:17.027Z,34.26
2022-07-29T13:52:19.629Z,37.29
2022-07-29T13:55:23.575Z,41.09
2022-07-29T13:58:26.224Z,41.58
2022-07-29T14:01:31.263Z,42.33
2022-07-29T14:04:34.363Z,43.97
2022-07-29T14:07:37.186Z,42.88
2022-07-29T14:10:41.088Z,43.32
2022-07-29T14:13:43.706Z,43.09
2022-07-29T14:16:49.144Z,42.79
2022-07-29T14:19:54.893Z,42.02
2022-07-29T14:22:58.235Z,44.00
2022-07-29T14:26:02.342Z,46.33
2022-07-29T14:29:05.154Z,44.45
2022-07-29T14:32:08.624Z,45.58
2022-07-29T14:35:11.450Z,44.65
2022-07-29T14:38:14.893Z,45.07
2022-07-29T14:41:18.868Z,45.51
2022-07-29T14:44:21.495Z,46.13
2022-07-29T14:47:24.273Z,47.14
2022-07-29T14:50:31.592Z,49.01
2022-07-29T14:53:34.879Z,49.39
2022-07-29T14:56:46.516Z,49.33
2022-07-29T14:59:49.736Z,48.95
2022-07-29T15:03:01.903Z,49.59
2022-07-29T15:06:05.494Z,49.97
2022-07-29T15:09:08.103Z,48.75
2022-07-29T15:12:12.339Z,48.83
2022-07-29T15:15:15.063Z,50.81
2022-07-29T15:18:25.576Z,51.22
2022-07-29T15:21:28.599Z,50.01
2022-07-29T15:24:31.237Z,51.00
2022-07-29T15:27:35.222Z,52.85
2022-07-29T15:30:41.628Z,53.21
2022-07-29T15:33:44.339Z,52.46
2022-07-29T15:36:52.611Z,53.08
2022-07-29T15:39:59.993Z,54.15
2022-07-29T15:43:07.005Z,52.82
2022-07-29T15:46:27.068Z,54.08
2022-07-29T15:49:48.178Z,53.19
2022-07-29T15:52:52.066Z,53.59
2022-07-29T15:55:54.652Z,53.16
2022-07-29T15:58:58.822Z,55.44
2022-07-29T16:02:02.935Z,55.72
2022-07-29T16:05:09.272Z,55.57
2022-07-29T16:08:12.587Z,56.70
2022-07-29T16:11:15.237Z,55.95
2022-07-29T16:14:19.271Z,55.92
2022-07-29T16:17:22.133Z,55.53
2022-07-29T16:20:25.351Z,55.32
2022-07-29T16:23:28.000Z,56.41
2022-07-29T16:26:31.833Z,57.46
2022-07-29T16:29:36.936Z,58.92
2022-07-29T16:32:40.168Z,57.63
2022-07-29T16:35:42.713Z,58.78
2022-07-29T16:38:47.233Z,59.05
2022-07-29T16:41:50.198Z,59.67
2022-07-29T16:44:54.150Z,59.98
2022-07-29T16:48:00.362Z,59.64
2022-07-29T16:51:04.557Z,58.95
2022-07-29T16:54:08.628Z,61.18
2022-07-29T16:57:11.803Z,61.28
2022-07-29T17:00:17.524Z,60.09
2022-07-29T17:03:20.463Z,60.06
2022-07-29T17:06:23.032Z,61.61
2022-07-29T17:09:25.620Z,62.00
2022-07-29T17:12:28.490Z,62.04
2022-07-29T17:15:32.428Z,61.29
2022-07-29T17:18:39.114Z,61.55
2022-07-29T17:21:49.101Z,61.88
2022-07-29T17:24:52.311Z,62.55
2022-07-29T17:28:00.596Z,63.20
2022-07-29T17:31:05.000Z,63.09
2022-07-29T17:34:08.665Z,63.68
2022-07-29T17:37:12.649Z,63.10
2022-07-29T17:40:15.297Z,63.35
2022-07-29T17:43:17.943Z,63.57
2022-07-29T17:46:24.682Z,63.36
2022-07-29T17:49:28.093Z,64.35
2022-07-29T17:52:31.074Z,64.46
2022-07-29T17:55:33.690Z,64.67
2022-07-29T17:58:36.672Z,65.90
2022-07-29T18:01:41.400Z,67.21
2022-07-29T18:04:44.056Z,68.16
2022-07-29T18:07:46.689Z,68.92
2022-07-29T18:10:49.371Z,69.36
2022-07-29T18:13:52.060Z,69.79
2022-07-29T18:16:56.411Z,70.17
2022-07-29T18:19:59.272Z,70.09
2022-07-29T18:23:02.405Z,69.77
2022-07-29T18:26:05.546Z,70.02
2022-07-29T18:29:09.279Z,70.38
2022-07-29T18:32:14.769Z,70.84
2022-07-29T18:35:17.497Z,71.48
2022-07-29T18:38:21.799Z,71.95
2022-07-29T18:41:24.371Z,71.98
2022-07-29T18:44:26.923Z,71.46
2022-07-29T18:47:32.201Z,72.57
2022-07-29T18:50:35.425Z,73.15
2022-07-29T18:53:38.454Z,73.55
2022-07-29T18:56:41.124Z,75.15
2022-07-29T18:59:43.780Z,75.04
2022-07-29T19:02:47.799Z,74.25
2022-07-29T19:05:50.571Z,76.14
2022-07-29T19:08:53.281Z,76.05
2022-07-29T19:11:57.960Z,76.81
2022-07-29T19:15:03.037Z,77.47
2022-07-29T19:18:07.155Z,78.46
2022-07-29T19:21:09.951Z,79.34
2022-07-29T19:24:15.549Z,79.05
2022-07-29T19:27:18.849Z,80.07
2022-07-29T19:30:21.575Z,80.87
2022-07-29T19:33:25.505Z,80.62
2022-07-29T19:36:28.201Z,81.34
2022-07-29T19:39:35.036Z,82.06
2022-07-29T19:42:38.244Z,82.57
2022-07-29T19:45:41.059Z,82.20
2022-07-29T19:48:45.147Z,84.42
2022-07-29T19:51:47.813Z,84.83
2022-07-29T19:54:50.550Z,85.16
2022-07-29T19:57:53.688Z,85.01
2022-07-29T20:00:56.287Z,86.72
2022-07-29T20:04:00.243Z,86.98
2022-07-29T20:07:02.906Z,86.87
2022-07-29T20:10:07.166Z,87.49
2022-07-29T20:13:09.948Z,88.59
2022-07-29T20:16:12.719Z,88.32
2022-07-29T20:19:17.236Z,90.15
2022-07-29T20:22:21.238Z,89.69
2022-07-29T20:25:24.334Z,91.17
2022-07-29T20:28:26.874Z,90.58
2022-07-29T20:31:30.499Z,91.37
2022-07-29T20:34:34.684Z,92.27
2022-07-29T20:37:52.218Z,92.74
2022-07-29T20:40:59.441Z,92.59
2022-07-29T20:44:02.276Z,93.64
2022-07-29T20:47:04.998Z,94.02
2022-07-29T20:50:10.877Z,94.75
2022-07-29T20:53:13.555Z,94.87
2022-07-29T20:56:16.366Z,94.46
2022-07-29T20:59:18.959Z,94.95
2022-07-29T21:02:21.572Z,95.62
2022-07-29T21:05:25.579Z,95.04
2022-07-29T21:08:28.702Z,95.49
2022-07-29T21:11:43.730Z,95.88
2022-07-29T21:14:48.408Z,96.14
2022-07-29T21:17:59.333Z,96.60
2022-07-29T21:21:05.103Z,95.63
2022-07-29T21:24:08.997Z,96.86
2022-07-29T21:27:32.845Z,96.47
2022-07-29T21:30:36.653Z,96.94
2022-07-29T21:33:40.730Z,97.56
2022-07-29T21:36:48.183Z,96.74
2022-07-29T21:39:51.236Z,97.09
2022-07-29T21:42:53.887Z,97.48
2022-07-29T21:45:56.740Z,97.93
2022-07-29T21:48:59.385Z,97.22
2022-07-29T21:52:03.544Z,97.04
2022-07-29T21:55:07.104Z,97.46
2022-07-29T21:58:11.008Z,97.32
2022-07-29T22:01:13.721Z,97.49
2022-07-29T22:04:16.739Z,96.45
2022-07-29T22:07:20.859Z,97.03
2022-07-29T22:10:24.332Z,97.43
2022-07-29T22:13:26.921Z,97.65
2022-07-29T22:16:29.609Z,97.36
2022-07-29T22:19:32.211Z,97.50
2022-07-29T22:22:36.278Z,97.96
2022-07-29T22:25:38.936Z,97.11
2022-07-29T22:28:41.527Z,97.59
2022-07-29T22:31:44.234Z,97.53
2022-07-29T22:34:47.028Z,97.26
2022-07-29T22:37:51.072Z,97.10
2022-07-29T22:40:53.668Z,97.33
2022-07-29T22:44:03.263Z,96.59
2022-07-29T22:47:06.168Z,97.17
2022-07-29T22:50:09.601Z,96.95
2022-07-29T22:53:13.608Z,97.61
2022-07-29T22:56:16.493Z,97.55
2022-07-29T22:59:19.293Z,98.26
2022-07-29T23:02:21.850Z,97.75
2022-07-29T23:05:24.476Z,98.45
2022-07-29T23:08:28.463Z,98.29
2022-07-29T23:11:31.118Z,98.67
2022-07-29T23:14:33.674Z,98.17
2022-07-29T23:17:37.013Z,99.00
2022-07-29T23:20:39.726Z,98.85
2022-07-29T23:23:45.602Z,98.78
2022-07-29T23:26:48.275Z,99.53
2022-07-29T23:29:50.872Z,99.41
2022-07-29T23:32:53.488Z,99.32
2022-07-29T23:35:56.113Z,99.23
2022-07-29T23:39:00.072Z,99.63
2022-07-29T23:42:03.673Z,100.00
2022-07-29T23:45:07.047Z,99.66
2022-07-29T23:48:09.638Z,100.00
2022-07-29T23:51:12.389Z,99.62
2022-07-29T23:54:16.362Z,99.76
2022-07-29T23:57:22.692Z,99.71
